createdAt,value
2022-11-01T00:02:18.695Z,2.75
2022-11-01T00:04:48.090Z,3.00
2022-11-01T00:07:17.385Z,3.00
2022-11-01T00:09:46.787Z,4.00
2022-11-01T00:12:16.134Z,2.25
2022-11-01T00:14:45.449Z,3.25
2022-11-01T00:17:14.833Z,5.00
2022-11-01T00:19:44.187Z,2.25
2022-11-01T00:22:13.469Z,3.00
2022-11-01T00:24:43.019Z,4.00
2022-11-01T00:27:12.525Z,2.75
2022-11-01T00:29:42.045Z,3.25
2022-11-01T00:32:11.369Z,4.00
2022-11-01T00:34:40.882Z,2.00
2022-11-01T00:37:10.296Z,2.00
2022-11-01T00:39:39.561Z,2.75
2022-11-01T00:42:09.058Z,2.00
2022-11-01T00:44:39.275Z,2.75
2022-11-01T00:47:08.752Z,4.00
2022-11-01T00:49:38.637Z,2.00
2022-11-01T00:52:07.999Z,3.00
2022-11-01T00:54:37.403Z,3.50
2022-11-01T00:57:06.856Z,1.75
2022-11-01T00:59:40.727Z,3.00
2022-11-01T01:02:10.637Z,3.25
2022-11-01T01:04:44.456Z,2.75
2022-11-01T01:07:14.888Z,2.00
2022-11-01T01:09:45.560Z,2.50
2022-11-01T01:12:14.939Z,2.50
2022-11-01T01:14:44.189Z,3.00
2022-11-01T01:17:13.640Z,2.00
2022-11-01T01:19:43.968Z,1.75
2022-11-01T01:22:13.418Z,2.00
2022-11-01T01:24:46.934Z,3.75
2022-11-01T01:27:19.585Z,2.00
2022-11-01T01:29:50.019Z,2.25
2022-11-01T01:32:20.516Z,3.25
2022-11-01T01:34:51.301Z,2.00
2022-11-01T01:37:21.459Z,2.00
2022-11-01T01:39:51.223Z,3.25
2022-11-01T01:42:31.229Z,3.00
2022-11-01T01:45:00.975Z,2.25
2022-11-01T01:47:31.904Z,2.00
2022-11-01T01:50:19.707Z,2.00
2022-11-01T01:52:51.951Z,2.00
2022-11-01T01:55:26.907Z,3.00
2022-11-01T01:57:57.471Z,2.75
2022-11-01T02:00:27.398Z,2.00
2022-11-01T02:02:56.824Z,2.00
2022-11-01T02:05:35.914Z,3.00
2022-11-01T02:08:06.844Z,1.75
2022-11-01T02:10:36.730Z,1.50
2022-11-01T02:13:13.782Z,2.00
2022-11-01T02:15:56.632Z,1.25
2022-11-01T02:18:42.278Z,2.00
2022-11-01T02:21:21.320Z,2.25
2022-11-01T02:23:50.696Z,3.00
2022-11-01T02:26:38.494Z,2.00
2022-11-01T02:29:17.303Z,2.00
2022-11-01T02:31:59.051Z,2.00
2022-11-01T02:34:33.265Z,2.00
2022-11-01T02:37:24.000Z,2.00
2022-11-01T02:39:55.345Z,1.75
2022-11-01T02:42:30.312Z,1.75
2022-11-01T02:45:07.213Z,1.75
2022-11-01T02:47:37.538Z,2.00
2022-11-01T02:50:09.654Z,2.00
2022-11-01T02:52:40.221Z,3.75
2022-11-01T02:55:30.977Z,2.00
2022-11-01T02:58:03.124Z,2.50
2022-11-01T03:00:37.962Z,1.50
2022-11-01T03:03:13.981Z,1.00
2022-11-01T03:06:07.320Z,1.50
2022-11-01T03:08:36.904Z,1.00
2022-11-01T03:11:08.282Z,2.00
2022-11-01T03:13:40.453Z,2.00
2022-11-01T03:16:18.597Z,1.50
2022-11-01T03:18:58.080Z,2.00
2022-11-01T03:21:28.812Z,1.25
2022-11-01T03:24:05.308Z,2.00
2022-11-01T03:26:36.945Z,2.00
2022-11-01T03:29:09.673Z,1.75
2022-11-01T03:31:40.448Z,2.25
2022-11-01T03:34:20.739Z,1.00
2022-11-01T03:36:54.666Z,1.00
2022-11-01T03:39:27.627Z,2.00
2022-11-01T03:41:59.584Z,1.50
2022-11-01T03:44:32.738Z,1.00
2022-11-01T03:47:02.250Z,1.00
2022-11-01T03:49:31.685Z,1.00
2022-11-01T03:52:01.445Z,1.00
2022-11-01T03:54:30.784Z,1.50
2022-11-01T03:57:00.210Z,1.00
2022-11-01T03:59:29.798Z,1.25
2022-11-01T04:01:59.406Z,1.00
2022-11-01T04:04:28.836Z,2.00
2022-11-01T04:06:58.295Z,1.00
2022-11-01T04:09:27.571Z,1.00
2022-11-01T04:11:56.874Z,1.00
2022-11-01T04:14:44.382Z,2.00
2022-11-01T04:17:32.196Z,1.00
2022-11-01T04:20:19.800Z,1.25
2022-11-01T04:22:51.601Z,1.00
2022-11-01T04:25:21.674Z,1.50
2022-11-01T04:27:51.146Z,1.00
2022-11-01T04:30:20.395Z,1.00
2022-11-01T04:32:49.853Z,1.00
2022-11-01T04:35:20.824Z,2.00
2022-11-01T04:37:50.095Z,1.00
2022-11-01T04:40:19.587Z,2.00
2022-11-01T04:42:48.921Z,1.00
2022-11-01T04:45:18.256Z,2.75
2022-11-01T04:47:56.362Z,1.00
2022-11-01T04:50:25.675Z,1.75
2022-11-01T04:52:55.145Z,1.00
2022-11-01T04:55:24.614Z,1.50
2022-11-01T04:57:53.923Z,1.00
2022-11-01T05:00:24.306Z,1.00
2022-11-01T05:02:54.104Z,1.00
2022-11-01T05:05:23.488Z,1.00
2022-11-01T05:07:52.847Z,1.00
2022-11-01T05:10:22.363Z,1.50
2022-11-01T05:12:51.789Z,2.00
2022-11-01T05:15:21.195Z,1.75
2022-11-01T05:17:50.675Z,2.50
2022-11-01T05:20:20.509Z,1.75
2022-11-01T05:22:50.437Z,1.00
2022-11-01T05:25:19.905Z,2.50
2022-11-01T05:27:49.218Z,2.75
2022-11-01T05:30:18.601Z,2.00
2022-11-01T05:32:48.080Z,1.00
2022-11-01T05:35:17.409Z,2.00
2022-11-01T05:37:46.729Z,1.50
2022-11-01T05:40:16.042Z,0.25
2022-11-01T05:42:45.886Z,1.25
2022-11-01T05:45:15.442Z,1.25
2022-11-01T05:47:45.312Z,2.00
2022-11-01T05:50:16.113Z,1.25
2022-11-01T05:52:46.481Z,0.50
2022-11-01T05:55:16.897Z,1.25
2022-11-01T06:00:21.461Z,1.00
2022-11-01T06:02:50.941Z,2.00
2022-11-01T06:05:20.282Z,1.00
2022-11-01T06:07:49.678Z,0.25
2022-11-01T06:10:19.102Z,0.50
2022-11-01T06:12:48.427Z,1.25
2022-11-01T06:15:17.843Z,1.50
2022-11-01T06:17:47.180Z,1.25
2022-11-01T06:20:16.658Z,0.75
2022-11-01T06:22:46.180Z,3.00
2022-11-01T06:25:15.565Z,1.25
2022-11-01T06:27:45.006Z,1.75
2022-11-01T06:30:14.556Z,1.25
2022-11-01T06:32:44.805Z,2.00
2022-11-01T06:35:15.043Z,1.00
2022-11-01T06:37:44.476Z,1.75
2022-11-01T06:40:14.284Z,2.00
2022-11-01T06:42:46.490Z,0.50
2022-11-01T06:45:18.265Z,1.00
2022-11-01T06:47:50.484Z,1.25
2022-11-01T06:50:19.803Z,2.00
2022-11-01T06:52:49.236Z,1.25
2022-11-01T06:55:18.644Z,2.00
2022-11-01T06:57:54.996Z,2.00
2022-11-01T07:00:24.340Z,1.00
2022-11-01T07:03:03.574Z,1.00
2022-11-01T07:05:37.124Z,1.00
2022-11-01T07:08:07.948Z,1.25
2022-11-01T07:10:38.635Z,1.00
2022-11-01T07:13:09.156Z,2.00
2022-11-01T07:15:38.521Z,1.50
2022-11-01T07:18:09.509Z,2.00
2022-11-01T07:20:48.516Z,1.00
2022-11-01T07:23:20.097Z,1.00
2022-11-01T07:25:55.361Z,2.00
2022-11-01T07:28:25.006Z,2.00
2022-11-01T07:30:55.461Z,2.00
2022-11-01T07:33:24.792Z,1.00
2022-11-01T07:35:54.194Z,1.00
2022-11-01T07:38:23.780Z,1.00
2022-11-01T07:40:54.474Z,1.00
2022-11-01T07:43:24.049Z,1.00
2022-11-01T07:45:53.448Z,2.00
2022-11-01T07:48:23.281Z,1.25
2022-11-01T07:50:52.716Z,2.00
2022-11-01T07:53:22.220Z,1.75
2022-11-01T07:55:51.530Z,1.00
2022-11-01T07:58:20.924Z,1.50
2022-11-01T08:00:50.839Z,2.00
2022-11-01T08:03:20.827Z,1.00
2022-11-01T08:05:50.619Z,1.25
2022-11-01T08:08:20.336Z,1.75
2022-11-01T08:10:49.841Z,2.00
2022-11-01T08:13:25.582Z,1.25
2022-11-01T08:15:56.022Z,1.00
2022-11-01T08:18:28.474Z,2.00
2022-11-01T08:21:00.160Z,1.00
2022-11-01T08:23:29.551Z,2.00
2022-11-01T08:25:59.853Z,2.00
2022-11-01T08:28:31.021Z,1.00
2022-11-01T08:31:00.598Z,1.00
2022-11-01T08:33:29.910Z,1.00
2022-11-01T08:35:59.232Z,1.00
2022-11-01T08:38:28.608Z,2.00
2022-11-01T08:40:58.430Z,2.00
2022-11-01T08:43:28.054Z,2.00
2022-11-01T08:46:00.321Z,2.00
2022-11-01T08:48:29.625Z,1.00
2022-11-01T08:50:58.945Z,2.00
2022-11-01T08:53:28.271Z,1.25
2022-11-01T08:55:58.716Z,2.25
2022-11-01T08:58:28.184Z,1.75
2022-11-01T09:00:57.646Z,1.75
2022-11-01T09:03:27.155Z,2.00
2022-11-01T09:05:58.888Z,1.00
2022-11-01T09:08:28.773Z,2.00
2022-11-01T09:11:01.250Z,2.00
2022-11-01T09:13:30.668Z,1.50
2022-11-01T09:16:02.285Z,2.00
2022-11-01T09:18:33.774Z,3.00
2022-11-01T09:21:03.438Z,2.00
2022-11-01T09:23:32.906Z,2.00
2022-11-01T09:26:09.736Z,2.00
2022-11-01T09:28:39.593Z,3.00
2022-11-01T09:31:20.957Z,2.50
2022-11-01T09:33:51.590Z,3.00
2022-11-01T09:36:21.280Z,2.25
2022-11-01T09:38:51.775Z,4.75
2022-11-01T09:41:27.012Z,5.00
2022-11-01T09:43:58.888Z,4.50
2022-11-01T09:46:34.168Z,7.75
2022-11-01T09:49:05.213Z,9.75
2022-11-01T09:51:35.319Z,9.75
2022-11-01T09:54:05.591Z,8.00
2022-11-01T09:56:49.124Z,11.00
2022-11-01T09:59:24.859Z,12.50
2022-11-01T10:02:08.770Z,22.50
2022-11-01T10:04:57.756Z,22.25
2022-11-01T10:07:39.518Z,18.25
2022-11-01T10:10:20.920Z,20.25
2022-11-01T10:13:00.575Z,18.50
2022-11-01T10:15:37.574Z,17.00
2022-11-01T10:18:33.914Z,15.75
2022-11-01T10:21:07.117Z,15.00
2022-11-01T10:23:40.760Z,19.00
2022-11-01T10:26:14.622Z,15.00
2022-11-01T10:29:10.426Z,19.25
2022-11-01T10:31:45.485Z,19.00
2022-11-01T10:34:38.283Z,14.50
2022-11-01T10:37:30.601Z,15.50
2022-11-01T10:40:09.236Z,17.25
2022-11-01T10:42:39.721Z,14.50
2022-11-01T10:45:10.329Z,16.75
2022-11-01T10:47:40.473Z,15.25
2022-11-01T10:50:19.552Z,17.50
2022-11-01T10:52:55.987Z,15.75
2022-11-01T10:55:36.656Z,14.00
2022-11-01T10:58:09.027Z,13.50
2022-11-01T11:00:42.521Z,13.75
2022-11-01T11:03:20.399Z,14.50
2022-11-01T11:05:51.135Z,14.50
2022-11-01T11:08:22.806Z,13.75
2022-11-01T11:10:53.034Z,14.25
2022-11-01T11:13:24.858Z,13.50
2022-11-01T11:16:07.668Z,14.00
2022-11-01T11:18:39.916Z,15.75
2022-11-01T11:21:11.381Z,14.00
2022-11-01T11:23:46.290Z,12.75
2022-11-01T11:26:22.359Z,12.25
2022-11-01T11:28:56.744Z,11.50
2022-11-01T11:31:29.877Z,14.50
2022-11-01T11:33:59.784Z,13.25
2022-11-01T11:36:34.282Z,13.50
2022-11-01T11:39:04.390Z,12.00
2022-11-01T11:41:38.240Z,11.50
2022-11-01T11:44:27.226Z,14.00
2022-11-01T11:46:59.752Z,12.75
2022-11-01T11:49:29.683Z,12.25
2022-11-01T11:52:01.246Z,13.75
2022-11-01T11:54:38.916Z,12.50
2022-11-01T11:57:26.288Z,11.00
2022-11-01T11:59:57.134Z,12.75
2022-11-01T12:02:31.853Z,12.00
2022-11-01T12:05:06.361Z,13.25
2022-11-01T12:07:54.197Z,11.00
2022-11-01T12:10:32.799Z,11.25
2022-11-01T12:13:03.882Z,13.50
2022-11-01T12:15:41.231Z,13.00
2022-11-01T12:18:19.213Z,12.75
2022-11-01T12:20:53.639Z,12.00
2022-11-01T12:23:23.355Z,12.00
2022-11-01T12:25:52.975Z,11.25
2022-11-01T12:28:42.964Z,11.00
2022-11-01T12:31:25.427Z,11.75
2022-11-01T12:34:18.292Z,9.00
2022-11-01T12:37:11.116Z,11.00
2022-11-01T12:39:42.234Z,10.00
2022-11-01T12:42:16.886Z,9.25
2022-11-01T12:44:52.832Z,11.00
2022-11-01T12:47:30.308Z,11.25
2022-11-01T12:50:05.562Z,9.25
2022-11-01T12:52:38.813Z,11.25
2022-11-01T12:55:19.774Z,9.00
2022-11-01T12:57:51.208Z,10.25
2022-11-01T13:00:22.884Z,9.00
2022-11-01T13:03:06.179Z,10.75
2022-11-01T13:05:58.987Z,9.00
2022-11-01T13:08:34.359Z,10.75
2022-11-01T13:11:16.425Z,9.75
2022-11-01T13:13:52.107Z,9.00
2022-11-01T13:16:26.754Z,9.00
2022-11-01T13:18:59.827Z,9.00
2022-11-01T13:21:33.287Z,11.00
2022-11-01T13:24:10.842Z,9.00
2022-11-01T13:26:46.960Z,10.00
2022-11-01T13:29:40.908Z,11.00
2022-11-01T13:32:17.119Z,9.25
2022-11-01T13:34:47.445Z,11.00
2022-11-01T13:37:17.010Z,10.50
2022-11-01T13:39:49.324Z,8.75
2022-11-01T13:42:22.708Z,9.00
2022-11-01T13:45:08.065Z,8.75
2022-11-01T13:47:58.524Z,8.00
2022-11-01T13:50:40.635Z,11.25
2022-11-01T13:53:13.763Z,9.75
2022-11-01T13:55:57.534Z,8.25
2022-11-01T13:58:28.902Z,9.75
2022-11-01T14:00:58.970Z,9.00
2022-11-01T14:03:34.090Z,8.50
2022-11-01T14:06:14.476Z,10.50
2022-11-01T14:08:49.899Z,8.75
2022-11-01T14:11:38.142Z,10.00
2022-11-01T14:14:28.264Z,9.00
2022-11-01T14:17:16.334Z,9.00
2022-11-01T14:19:50.033Z,10.00
2022-11-01T14:22:26.653Z,8.50
2022-11-01T14:24:56.710Z,10.00
2022-11-01T14:27:26.769Z,8.25
2022-11-01T14:29:57.232Z,8.00
2022-11-01T14:32:28.844Z,10.25
2022-11-01T14:35:23.800Z,8.50
2022-11-01T14:37:55.712Z,8.50
2022-11-01T14:40:29.116Z,9.50
2022-11-01T14:43:02.983Z,9.00
2022-11-01T14:45:34.600Z,7.75
2022-11-01T14:48:29.002Z,9.25
2022-11-01T14:51:17.568Z,7.25
2022-11-01T14:53:49.150Z,9.50
2022-11-01T14:56:21.345Z,10.00
2022-11-01T14:58:51.264Z,7.50
2022-11-01T15:01:26.593Z,9.00
2022-11-01T15:03:57.543Z,10.50
2022-11-01T15:06:31.642Z,9.00
2022-11-01T15:09:04.235Z,8.25
2022-11-01T15:11:37.030Z,8.00
2022-11-01T15:14:08.761Z,8.00
2022-11-01T15:16:39.466Z,9.50
2022-11-01T15:19:15.593Z,8.75
2022-11-01T15:21:47.600Z,9.00
2022-11-01T15:24:21.990Z,8.00
2022-11-01T15:26:52.551Z,7.50
2022-11-01T15:29:24.697Z,10.00
2022-11-01T15:31:58.975Z,9.00
2022-11-01T15:34:30.024Z,8.50
2022-11-01T15:37:01.388Z,8.75
2022-11-01T15:39:31.358Z,9.50
2022-11-01T15:42:04.027Z,7.50
2022-11-01T15:44:33.754Z,8.50
2022-11-01T15:47:04.900Z,8.75
2022-11-01T15:49:38.576Z,8.25
2022-11-01T15:52:16.850Z,11.25
2022-11-01T15:55:00.799Z,8.25
2022-11-01T15:57:35.180Z,9.00
2022-11-01T16:00:19.426Z,10.25
2022-11-01T16:02:51.916Z,9.00
2022-11-01T16:05:24.703Z,8.75
2022-11-01T16:07:55.813Z,8.25
2022-11-01T16:10:29.349Z,8.25
2022-11-01T16:13:01.398Z,8.25
2022-11-01T16:15:32.642Z,10.00
2022-11-01T16:18:04.009Z,8.75
2022-11-01T16:20:34.182Z,9.00
2022-11-01T16:23:04.969Z,8.00
2022-11-01T16:25:36.129Z,7.75
2022-11-01T16:28:11.256Z,8.00
2022-11-01T16:30:44.152Z,8.50
2022-11-01T16:33:26.303Z,9.50
2022-11-01T16:35:58.796Z,10.75
2022-11-01T16:38:37.838Z,10.00
2022-11-01T16:41:16.559Z,10.00
2022-11-01T16:43:46.863Z,7.25
2022-11-01T16:46:16.363Z,9.75
2022-11-01T16:48:55.192Z,8.75
2022-11-01T16:51:27.968Z,10.00
2022-11-01T16:53:58.488Z,9.00
2022-11-01T16:56:51.111Z,8.25
2022-11-01T16:59:24.145Z,7.50
2022-11-01T17:01:56.801Z,9.00
2022-11-01T17:04:28.516Z,10.00
2022-11-01T17:07:01.595Z,10.00
2022-11-01T17:09:33.099Z,9.50
2022-11-01T17:12:03.034Z,8.50
2022-11-01T17:14:33.513Z,9.50
2022-11-01T17:17:08.406Z,10.00
2022-11-01T17:19:39.939Z,9.00
2022-11-01T17:22:13.875Z,8.75
2022-11-01T17:24:43.514Z,8.50
2022-11-01T17:27:13.797Z,9.00
2022-11-01T17:29:44.537Z,9.00
2022-11-01T17:32:13.958Z,8.25
2022-11-01T17:34:43.409Z,8.75
2022-11-01T17:37:18.847Z,10.50
2022-11-01T17:39:48.176Z,8.50
2022-11-01T17:42:17.539Z,9.75
2022-11-01T17:44:46.887Z,8.75
2022-11-01T17:47:16.734Z,10.00
2022-11-01T17:49:46.082Z,8.50
2022-11-01T17:52:15.480Z,8.25
2022-11-01T17:54:44.812Z,9.00
2022-11-01T17:57:14.153Z,9.25
2022-11-01T17:59:43.507Z,8.50
2022-11-01T18:02:13.080Z,8.75
2022-11-01T18:04:42.649Z,9.00
2022-11-01T18:07:15.154Z,9.00
2022-11-01T18:09:44.688Z,11.25
2022-11-01T18:12:17.098Z,7.50
2022-11-01T18:17:50.884Z,9.75
2022-11-01T18:20:24.002Z,7.00
2022-11-01T18:23:00.106Z,8.25
2022-11-01T18:25:30.154Z,9.00
2022-11-01T18:28:01.652Z,10.50
2022-11-01T18:30:31.596Z,9.00
2022-11-01T18:33:19.670Z,7.00
2022-11-01T18:35:55.142Z,8.25
2022-11-01T18:38:34.196Z,9.00
2022-11-01T18:41:04.892Z,8.25
2022-11-01T18:43:41.638Z,10.00
2022-11-01T18:46:24.995Z,10.75
2022-11-01T18:49:01.058Z,8.25
2022-11-01T18:51:32.498Z,8.75
2022-11-01T18:54:11.164Z,10.00
2022-11-01T18:56:41.432Z,8.00
2022-11-01T18:59:18.080Z,9.00
2022-11-01T19:01:47.819Z,8.50
2022-11-01T19:04:29.037Z,11.00
2022-11-01T19:07:04.817Z,8.00
2022-11-01T19:09:39.816Z,8.00
2022-11-01T19:12:15.158Z,6.75
2022-11-01T19:14:46.024Z,7.75
2022-11-01T19:17:25.983Z,7.50
2022-11-01T19:19:56.390Z,7.50
2022-11-01T19:22:33.730Z,8.75
2022-11-01T19:25:03.552Z,8.00
2022-11-01T19:27:32.911Z,7.50
2022-11-01T19:30:02.385Z,7.50
2022-11-01T19:32:31.823Z,8.00
2022-11-01T19:35:01.749Z,7.25
2022-11-01T19:37:34.852Z,8.00
2022-11-01T19:40:06.667Z,8.75
2022-11-01T19:42:37.351Z,9.00
2022-11-01T19:45:07.144Z,9.25
2022-11-01T19:47:39.948Z,8.75
2022-11-01T19:50:17.438Z,7.25
2022-11-01T19:52:47.734Z,7.50
2022-11-01T19:55:38.534Z,9.50
2022-11-01T19:58:26.509Z,8.00
2022-11-01T20:01:03.409Z,7.75
2022-11-01T20:03:41.971Z,9.00
2022-11-01T20:06:31.443Z,6.50
2022-11-01T20:09:06.252Z,7.00
2022-11-01T20:11:35.778Z,8.50
2022-11-01T20:14:05.103Z,9.50
2022-11-01T20:16:34.650Z,8.00
2022-11-01T20:19:03.897Z,7.75
2022-11-01T20:21:33.369Z,7.00
2022-11-01T20:24:03.927Z,7.75
2022-11-01T20:26:33.864Z,9.25
2022-11-01T20:29:03.367Z,10.00
2022-11-01T20:31:32.891Z,8.00
2022-11-01T20:34:02.296Z,7.25
2022-11-01T20:36:31.767Z,7.00
2022-11-01T20:39:01.215Z,8.00
2022-11-01T20:41:30.578Z,8.25
2022-11-01T20:43:59.879Z,8.25
2022-11-01T20:46:29.177Z,6.00
2022-11-01T20:48:58.666Z,7.75
2022-11-01T20:51:28.323Z,8.75
2022-11-01T20:53:58.339Z,7.00
2022-11-01T20:56:28.259Z,9.00
2022-11-01T20:58:57.629Z,8.00
2022-11-01T21:01:27.149Z,8.25
2022-11-01T21:03:56.754Z,8.50
2022-11-01T21:06:28.451Z,8.75
2022-11-01T21:08:59.041Z,7.75
2022-11-01T21:11:44.762Z,8.25
2022-11-01T21:14:39.675Z,5.50
2022-11-01T21:17:19.315Z,9.00
2022-11-01T21:19:54.927Z,8.25
2022-11-01T21:22:24.506Z,8.25
2022-11-01T21:24:53.734Z,7.00
2022-11-01T21:27:31.300Z,9.00
2022-11-01T21:30:14.999Z,8.00
2022-11-01T21:32:47.539Z,7.50
2022-11-01T21:35:23.016Z,7.25
2022-11-01T21:37:55.138Z,8.00
2022-11-01T21:40:29.024Z,8.50
2022-11-01T21:42:59.644Z,6.75
2022-11-01T21:45:29.464Z,10.25
2022-11-01T21:48:03.006Z,9.00
2022-11-01T21:50:33.535Z,8.00
2022-11-01T21:53:03.248Z,8.00
2022-11-01T21:55:34.066Z,8.00
2022-11-01T21:58:04.323Z,7.50
2022-11-01T22:00:33.816Z,9.50
2022-11-01T22:03:03.407Z,7.75
2022-11-01T22:05:32.817Z,8.25
2022-11-01T22:08:02.242Z,7.25
2022-11-01T22:10:31.585Z,7.75
2022-11-01T22:13:05.676Z,9.00
2022-11-01T22:15:37.029Z,10.00
2022-11-01T22:18:06.873Z,7.25
2022-11-01T22:20:36.172Z,9.50
2022-11-01T22:23:05.626Z,8.00
2022-11-01T22:25:35.204Z,9.00
2022-11-01T22:28:05.315Z,9.50
2022-11-01T22:30:34.657Z,5.00
2022-11-01T22:33:04.769Z,9.00
2022-11-01T22:35:34.251Z,7.25
2022-11-01T22:38:04.680Z,8.00
2022-11-01T22:40:34.031Z,8.25
2022-11-01T22:43:05.120Z,9.00
2022-11-01T22:45:35.846Z,8.00
2022-11-01T22:48:11.572Z,8.00
2022-11-01T22:50:41.575Z,7.50
2022-11-01T22:53:16.871Z,8.00
2022-11-01T22:55:50.632Z,6.75
2022-11-01T22:58:26.992Z,7.50
2022-11-01T23:00:57.763Z,7.25
2022-11-01T23:03:29.001Z,5.50
2022-11-01T23:06:05.997Z,5.00
2022-11-01T23:08:36.231Z,6.00
2022-11-01T23:11:05.983Z,6.50
2022-11-01T23:13:59.567Z,5.50
2022-11-01T23:16:35.659Z,4.75
2022-11-01T23:19:09.793Z,5.25
2022-11-01T23:21:39.329Z,5.75
2022-11-01T23:24:09.461Z,5.25
2022-11-01T23:26:38.928Z,6.25
2022-11-01T23:29:08.343Z,6.00
2022-11-01T23:31:37.840Z,4.00
2022-11-01T23:34:09.285Z,5.50
2022-11-01T23:36:39.705Z,5.25
2022-11-01T23:39:12.869Z,6.75
2022-11-01T23:41:50.783Z,7.75
2022-11-01T23:44:23.260Z,8.00
2022-11-01T23:46:54.365Z,10.00
2022-11-01T23:49:30.526Z,10.75
2022-11-01T23:52:01.785Z,12.00
2022-11-01T23:54:34.163Z,11.75
2022-11-01T23:57:04.037Z,10.50
2022-11-01T23:59:33.853Z,10.00
